Time,TemperatureF,DewpointF,PressureIn,WindDirection,WindDirectionDegrees,WindSpeedMPH,WindSpeedGustMPH,Humidity,HourlyPrecipIn,Conditions,Clouds,dailyrainin,SoftwareType,DateUTC
2013-07-30 00:06:00,88.6,67.0,29.90,North,355,1.0,1.0,49,0.00,,,0.00,Wunderground v.1.15,2013-07-29 21:06:00,
2013-07-30 00:16:00,88.3,66.7,29.90,NNE,15,0.0,2.0,49,0.00,,,0.00,Wunderground v.1.15,2013-07-29 21:16:00,
2013-07-30 00:25:00,88.1,66.5,29.90,NNE,20,1.0,3.0,49,0.00,,,0.00,Wunderground v.1.15,2013-07-29 21:25:00,
2013-07-30 00:31:00,88.0,66.4,29.90,ENE,76,2.0,2.0,49,0.00,,,0.00,Wunderground v.1.15,2013-07-29 21:31:00,
2013-07-30 00:40:00,87.8,66.3,29.90,ENE,68,1.0,1.0,49,0.00,,,0.00,Wunderground v.1.15,2013-07-29 21:40:00,
2013-07-30 00:46:00,87.7,65.6,29.90,ENE,57,1.0,5.0,48,0.00,,,0.00,Wunderground v.1.15,2013-07-29 21:46:00,
2013-07-30 00:55:00,87.7,65.6,29.90,ESE,105,2.0,2.0,48,0.00,,,0.00,Wunderground v.1.15,2013-07-29 21:55:00,
2013-07-30 01:05:00,87.7,65.0,29.90,East,94,2.0,4.0,47,0.00,,,0.00,Wunderground v.1.15,2013-07-29 22:05:00,
2013-07-30 01:16:00,87.6,64.9,29.90,NE,53,2.0,2.0,47,0.00,,,0.00,Wunderground v.1.15,2013-07-29 22:16:00,
2013-07-30 01:25:00,87.6,65.5,29.90,NE,38,2.0,3.0,48,0.00,,,0.00,Wunderground v.1.15,2013-07-29 22:25:00,
2013-07-30 01:35:00,87.4,65.3,29.90,ENE,69,3.0,5.0,48,0.00,,,0.00,Wunderground v.1.15,2013-07-29 22:35:00,
2013-07-30 01:50:00,87.2,65.1,29.90,East,83,2.0,5.0,48,0.00,,,0.00,Wunderground v.1.15,2013-07-29 22:50:00,
2013-07-30 02:01:00,87.1,65.0,29.89,NE,51,3.0,4.0,48,0.00,,,0.00,Wunderground v.1.15,2013-07-29 23:01:00,
2013-07-30 02:16:00,87.2,64.5,29.89,ENE,68,4.0,5.0,47,0.00,,,0.00,Wunderground v.1.15,2013-07-29 23:16:00,
2013-07-30 02:25:00,87.2,65.1,29.89,ENE,69,4.0,5.0,48,0.00,,,0.00,Wunderground v.1.15,2013-07-29 23:25:00,
2013-07-30 02:35:00,87.1,64.4,29.89,East,84,3.0,5.0,47,0.00,,,0.00,Wunderground v.1.15,2013-07-29 23:35:00,
2013-07-30 02:46:00,86.9,64.8,29.88,East,85,2.0,3.0,48,0.00,,,0.00,Wunderground v.1.15,2013-07-29 23:46:00,
2013-07-30 02:55:00,86.9,64.8,29.88,East,85,0.0,1.0,48,0.00,,,0.00,Wunderground v.1.15,2013-07-29 23:55:00,
2013-07-30 03:05:00,86.8,64.2,29.88,East,80,0.0,3.0,47,0.00,,,0.00,Wunderground v.1.15,2013-07-30 00:05:00,
2013-07-30 03:16:00,86.8,64.8,29.87,East,81,1.0,3.0,48,0.00,,,0.00,Wunderground v.1.15,2013-07-30 00:16:00,
2013-07-30 03:25:00,86.7,64.7,29.87,East,87,2.0,4.0,48,0.00,,,0.00,Wunderground v.1.15,2013-07-30 00:25:00,
2013-07-30 03:31:00,86.6,64.6,29.87,East,88,3.0,3.0,48,0.00,,,0.00,Wunderground v.1.15,2013-07-30 00:31:00,
2013-07-30 03:40:00,86.5,64.5,29.87,East,96,3.0,3.0,48,0.00,,,0.00,Wunderground v.1.15,2013-07-30 00:40:00,
2013-07-30 03:45:00,86.5,64.5,29.86,East,86,4.0,4.0,48,0.00,,,0.00,Wunderground v.1.15,2013-07-30 00:45:00,
2013-07-30 04:01:00,86.2,64.8,29.86,SSE,163,1.0,1.0,49,0.00,,,0.00,Wunderground v.1.15,2013-07-30 01:01:00,
2013-07-30 04:16:00,85.9,64.5,29.85,South,176,0.0,0.0,49,0.00,,,0.00,Wunderground v.1.15,2013-07-30 01:16:00,
2013-07-30 04:25:00,85.9,64.5,29.85,South,176,0.0,0.0,49,0.00,,,0.00,Wunderground v.1.15,2013-07-30 01:25:00,
2013-07-30 04:35:00,85.7,63.8,29.86,South,178,0.0,0.0,48,0.00,,,0.00,Wunderground v.1.15,2013-07-30 01:35:00,
2013-07-30 04:55:00,85.6,67.0,29.86,NNW,342,1.0,1.0,54,0.00,,,0.00,Wunderground v.1.15,2013-07-30 01:55:00,
2013-07-30 05:05:00,85.1,67.1,29.85,NNW,346,0.0,0.0,55,0.00,,,0.00,Wunderground v.1.15,2013-07-30 02:05:00,
2013-07-30 05:10:00,84.9,66.9,29.85,NNW,346,0.0,0.0,55,0.00,,,0.00,Wunderground v.1.15,2013-07-30 02:10:00,
2013-07-30 05:20:00,84.7,66.2,29.85,NNW,346,0.0,0.0,54,0.00,,,0.00,Wunderground v.1.15,2013-07-30 02:20:00,
2013-07-30 05:30:00,84.5,66.0,29.85,NNW,346,0.0,0.0,54,0.00,,,0.00,Wunderground v.1.15,2013-07-30 02:30:00,
2013-07-30 05:40:00,84.3,64.8,29.85,NNW,346,0.0,0.0,52,0.00,,,0.00,Wunderground v.1.15,2013-07-30 02:40:00,
2013-07-30 05:46:00,84.3,64.2,29.85,NNW,346,0.0,0.0,51,0.00,,,0.00,Wunderground v.1.15,2013-07-30 02:46:00,
2013-07-30 05:55:00,84.4,65.4,29.85,NNW,346,0.0,0.0,53,0.00,,,0.00,Wunderground v.1.15,2013-07-30 02:55:00,
2013-07-30 06:01:00,84.5,64.9,29.85,NNW,346,0.0,0.0,52,0.00,,,0.00,Wunderground v.1.15,2013-07-30 03:01:00,
2013-07-30 06:15:00,85.1,64.4,29.85,ENE,68,1.0,3.0,50,0.00,,,0.00,Wunderground v.1.15,2013-07-30 03:15:00,
2013-07-30 06:25:00,85.3,64.0,29.85,ENE,68,0.0,1.0,49,0.00,,,0.00,Wunderground v.1.15,2013-07-30 03:25:00,
2013-07-30 06:30:00,85.3,64.0,29.85,ENE,69,0.0,0.0,49,0.00,,,0.00,Wunderground v.1.15,2013-07-30 03:30:00,
2013-07-30 06:40:00,85.4,64.6,29.85,ENE,69,0.0,0.0,50,0.00,,,0.00,Wunderground v.1.15,2013-07-30 03:40:00,
2013-07-30 06:55:00,85.6,64.2,29.84,ENE,69,0.0,0.0,49,0.00,,,0.00,Wunderground v.1.15,2013-07-30 03:55:00,
2013-07-30 07:01:00,85.8,64.4,29.85,ENE,69,0.0,0.0,49,0.00,,,0.00,Wunderground v.1.15,2013-07-30 04:01:00,
2013-07-30 07:05:00,86.1,64.7,29.85,ENE,69,0.0,0.0,49,0.00,,,0.00,Wunderground v.1.15,2013-07-30 04:05:00,
2013-07-30 07:10:00,86.4,64.4,29.85,ENE,68,0.0,0.0,48,0.00,,,0.00,Wunderground v.1.15,2013-07-30 04:10:00,
2013-07-30 07:16:00,86.7,64.7,29.85,ENE,69,0.0,0.0,48,0.00,,,0.00,Wunderground v.1.15,2013-07-30 04:16:00,
2013-07-30 07:25:00,86.8,65.3,29.85,ENE,68,0.0,0.0,49,0.00,,,0.00,Wunderground v.1.15,2013-07-30 04:25:00,
2013-07-30 07:31:00,86.7,65.3,29.85,ENE,69,0.0,0.0,49,0.00,,,0.00,Wunderground v.1.15,2013-07-30 04:31:00,
2013-07-30 07:40:00,87.1,65.6,29.85,ENE,68,0.0,0.0,49,0.00,,,0.00,Wunderground v.1.15,2013-07-30 04:40:00,
2013-07-30 07:46:00,87.8,65.7,29.85,ENE,69,0.0,0.0,48,0.00,,,0.00,Wunderground v.1.15,2013-07-30 04:46:00,
2013-07-30 07:55:00,87.9,66.9,29.85,ENE,69,0.0,0.0,50,0.00,,,0.00,Wunderground v.1.15,2013-07-30 04:55:00,
2013-07-30 08:01:00,87.6,66.7,29.85,ENE,68,0.0,0.0,50,0.00,,,0.00,Wunderground v.1.15,2013-07-30 05:01:00,
2013-07-30 08:10:00,87.9,66.4,29.85,ENE,69,0.0,0.0,49,0.00,,,0.00,Wunderground v.1.15,2013-07-30 05:10:00,
2013-07-30 08:20:00,89.0,66.8,29.85,ENE,69,0.0,0.0,48,0.00,,,0.00,Wunderground v.1.15,2013-07-30 05:20:00,
2013-07-30 08:31:00,89.5,66.6,29.85,ENE,69,0.0,0.0,47,0.00,,,0.00,Wunderground v.1.15,2013-07-30 05:31:00,
2013-07-30 08:40:00,89.8,66.3,29.84,ENE,69,0.0,0.0,46,0.00,,,0.00,Wunderground v.1.15,2013-07-30 05:40:00,
2013-07-30 08:46:00,89.6,66.7,29.85,ENE,68,0.0,0.0,47,0.00,,,0.00,Wunderground v.1.15,2013-07-30 05:46:00,
2013-07-30 08:55:00,89.9,66.3,29.85,ENE,69,0.0,0.0,46,0.00,,,0.00,Wunderground v.1.15,2013-07-30 05:55:00,
2013-07-30 09:05:00,90.5,66.9,29.84,NNE,18,0.0,0.0,46,0.00,,,0.00,Wunderground v.1.15,2013-07-30 06:05:00,
2013-07-30 09:10:00,90.5,67.5,29.84,North,360,0.0,0.0,47,0.00,,,0.00,Wunderground v.1.15,2013-07-30 06:10:00,
2013-07-30 09:20:00,91.1,68.1,29.84,North,5,0.0,0.0,47,0.00,,,0.00,Wunderground v.1.15,2013-07-30 06:20:00,
2013-07-30 09:35:00,92.9,69.1,29.84,NNE,32,0.0,0.0,46,0.00,,,0.00,Wunderground v.1.15,2013-07-30 06:35:00,
2013-07-30 09:40:00,92.9,70.3,29.84,North,355,1.0,1.0,48,0.00,,,0.00,Wunderground v.1.15,2013-07-30 06:40:00,
2013-07-30 09:46:00,92.6,70.0,29.84,North,355,1.0,1.0,48,0.00,,,0.00,Wunderground v.1.15,2013-07-30 06:46:00,
2013-07-30 09:55:00,92.7,70.1,29.84,North,360,1.0,1.0,48,0.00,,,0.00,Wunderground v.1.15,2013-07-30 06:55:00,
2013-07-30 10:05:00,93.7,71.0,29.83,NNE,18,1.0,1.0,48,0.00,,,0.00,Wunderground v.1.15,2013-07-30 07:05:00,
2013-07-30 10:16:00,94.0,70.1,29.83,ENE,75,0.0,0.0,46,0.00,,,0.00,Wunderground v.1.15,2013-07-30 07:16:00,
2013-07-30 10:25:00,94.4,70.4,29.83,ENE,63,1.0,1.0,46,0.00,,,0.00,Wunderground v.1.15,2013-07-30 07:25:00,
2013-07-30 10:31:00,94.2,70.9,29.83,NE,54,3.0,3.0,47,0.00,,,0.00,Wunderground v.1.15,2013-07-30 07:31:00,
2013-07-30 10:40:00,94.5,71.2,29.83,North,5,1.0,3.0,47,0.00,,,0.00,Wunderground v.1.15,2013-07-30 07:40:00,
2013-07-30 10:46:00,94.3,71.6,29.83,NNE,17,2.0,3.0,48,0.00,,,0.00,Wunderground v.1.15,2013-07-30 07:46:00,
2013-07-30 10:55:00,94.6,70.6,29.83,North,355,2.0,2.0,46,0.00,,,0.00,Wunderground v.1.15,2013-07-30 07:55:00,
2013-07-30 11:05:00,94.6,70.6,29.83,North,351,3.0,5.0,46,0.00,,,0.00,Wunderground v.1.15,2013-07-30 08:05:00,
2013-07-30 11:10:00,94.6,71.2,29.83,NNW,346,4.0,5.0,47,0.00,,,0.00,Wunderground v.1.15,2013-07-30 08:10:00,
2013-07-30 11:16:00,94.8,72.0,29.83,North,360,3.0,6.0,48,0.00,,,0.00,Wunderground v.1.15,2013-07-30 08:16:00,
2013-07-30 11:25:00,95.3,71.9,29.82,NNE,14,3.0,6.0,47,0.00,,,0.00,Wunderground v.1.15,2013-07-30 08:25:00,
2013-07-30 11:35:00,95.3,71.9,29.82,North,355,4.0,5.0,47,0.00,,,0.00,Wunderground v.1.15,2013-07-30 08:35:00,
2013-07-30 11:50:00,94.4,72.3,29.82,NNW,344,6.0,9.0,49,0.00,,,0.00,Wunderground v.1.15,2013-07-30 08:50:00,
2013-07-30 12:05:00,93.4,72.0,29.82,NNW,346,8.0,8.0,50,0.00,,,0.00,Wunderground v.1.15,2013-07-30 09:05:00,
2013-07-30 12:16:00,93.3,71.3,29.81,NNW,329,8.0,8.0,49,0.00,,,0.00,Wunderground v.1.15,2013-07-30 09:16:00,
2013-07-30 12:25:00,93.7,72.8,29.81,North,9,8.0,8.0,51,0.00,,,0.00,Wunderground v.1.15,2013-07-30 09:25:00,
2013-07-30 12:31:00,92.9,72.7,29.81,NNW,338,9.0,9.0,52,0.00,,,0.00,Wunderground v.1.15,2013-07-30 09:31:00,
2013-07-30 12:40:00,91.9,71.2,29.81,North,355,11.0,11.0,51,0.00,,,0.00,Wunderground v.1.15,2013-07-30 09:40:00,
2013-07-30 12:46:00,92.1,71.4,29.80,NNW,336,10.0,13.0,51,0.00,,,0.00,Wunderground v.1.15,2013-07-30 09:46:00,
2013-07-30 12:55:00,92.3,71.0,29.80,NNW,346,10.0,13.0,50,0.00,,,0.00,Wunderground v.1.15,2013-07-30 09:55:00,
2013-07-30 13:05:00,93.0,71.0,29.80,NNW,336,9.0,9.0,49,0.00,,,0.00,Wunderground v.1.15,2013-07-30 10:05:00,
2013-07-30 13:10:00,93.7,72.3,29.80,NNW,338,8.0,9.0,50,0.00,,,0.00,Wunderground v.1.15,2013-07-30 10:10:00,
2013-07-30 13:16:00,94.1,72.0,29.80,WNW,303,8.0,8.0,49,0.00,,,0.00,Wunderground v.1.15,2013-07-30 10:16:00,
2013-07-30 13:25:00,94.3,72.8,29.80,North,360,6.0,6.0,50,0.00,,,0.00,Wunderground v.1.15,2013-07-30 10:25:00,
2013-07-30 13:35:00,93.9,76.4,29.80,NNW,340,4.0,8.0,57,0.00,,,0.00,Wunderground v.1.15,2013-07-30 10:35:00,
2013-07-30 13:40:00,93.2,75.7,29.80,NW,321,5.0,10.0,57,0.00,,,0.00,Wunderground v.1.15,2013-07-30 10:40:00,
2013-07-30 13:46:00,93.4,75.9,29.80,NW,315,5.0,5.0,57,0.00,,,0.00,Wunderground v.1.15,2013-07-30 10:46:00,
2013-07-30 13:55:00,93.4,77.9,29.80,NW,309,3.0,6.0,61,0.00,,,0.00,Wunderground v.1.15,2013-07-30 10:55:00,
2013-07-30 14:01:00,92.7,78.7,29.80,NW,306,4.0,6.0,64,0.00,,,0.00,Wunderground v.1.15,2013-07-30 11:01:00,
2013-07-30 14:10:00,91.8,77.9,29.79,WNW,299,4.0,4.0,64,0.00,,,0.00,Wunderground v.1.15,2013-07-30 11:10:00,
2013-07-30 14:20:00,92.5,75.0,29.79,WNW,296,3.0,3.0,57,0.00,,,0.00,Wunderground v.1.15,2013-07-30 11:20:00,
2013-07-30 14:31:00,93.3,75.3,29.79,WNW,298,3.0,5.0,56,0.00,,,0.00,Wunderground v.1.15,2013-07-30 11:31:00,
2013-07-30 14:40:00,93.7,76.2,29.79,WNW,286,3.0,9.0,57,0.00,,,0.00,Wunderground v.1.15,2013-07-30 11:40:00,
2013-07-30 14:46:00,92.6,75.1,29.79,WNW,290,6.0,10.0,57,0.00,,,0.00,Wunderground v.1.15,2013-07-30 11:46:00,
2013-07-30 14:55:00,91.4,74.5,29.78,WNW,299,7.0,10.0,58,0.00,,,0.00,Wunderground v.1.15,2013-07-30 11:55:00,
2013-07-30 15:05:00,91.4,75.6,29.78,West,279,7.0,10.0,60,0.00,,,0.00,Wunderground v.1.15,2013-07-30 12:05:00,
2013-07-30 15:10:00,91.2,73.8,29.78,WNW,284,8.0,11.0,57,0.00,,,0.00,Wunderground v.1.15,2013-07-30 12:10:00,
2013-07-30 15:16:00,91.2,71.7,29.78,WNW,287,9.0,11.0,53,0.00,,,0.00,Wunderground v.1.15,2013-07-30 12:16:00,
2013-07-30 15:25:00,92.2,75.8,29.78,WSW,244,9.0,9.0,59,0.00,,,0.00,Wunderground v.1.15,2013-07-30 12:25:00,
2013-07-30 15:35:00,92.8,79.8,29.78,WSW,254,4.0,5.0,66,0.00,,,0.00,Wunderground v.1.15,2013-07-30 12:35:00,
2013-07-30 15:40:00,92.1,78.6,29.77,SW,234,5.0,5.0,65,0.00,,,0.00,Wunderground v.1.15,2013-07-30 12:40:00,
2013-07-30 15:46:00,91.9,78.9,29.77,SW,223,5.0,7.0,66,0.00,,,0.00,Wunderground v.1.15,2013-07-30 12:46:00,
2013-07-30 15:55:00,90.7,78.2,29.77,West,281,7.0,7.0,67,0.00,,,0.00,Wunderground v.1.15,2013-07-30 12:55:00,
2013-07-30 16:05:00,90.9,78.0,29.77,WSW,245,4.0,8.0,66,0.00,,,0.00,Wunderground v.1.15,2013-07-30 13:05:00,
2013-07-30 16:10:00,90.5,76.7,29.76,WSW,239,5.0,9.0,64,0.00,,,0.00,Wunderground v.1.15,2013-07-30 13:10:00,
2013-07-30 16:20:00,90.7,76.8,29.76,SSW,206,5.0,11.0,64,0.00,,,0.00,Wunderground v.1.15,2013-07-30 13:20:00,
2013-07-30 16:35:00,90.4,77.5,29.76,West,266,9.0,10.0,66,0.00,,,0.00,Wunderground v.1.15,2013-07-30 13:35:00,
2013-07-30 16:46:00,90.2,77.8,29.76,West,280,6.0,6.0,67,0.00,,,0.00,Wunderground v.1.15,2013-07-30 13:46:00,
2013-07-30 16:55:00,89.2,77.7,29.75,WNW,284,4.0,4.0,69,0.00,,,0.00,Wunderground v.1.15,2013-07-30 13:55:00,
2013-07-30 17:01:00,89.0,77.9,29.75,West,273,3.0,3.0,70,0.00,,,0.00,Wunderground v.1.15,2013-07-30 14:01:00,
2013-07-30 17:10:00,89.5,78.4,29.75,WSW,250,4.0,4.0,70,0.00,,,0.00,Wunderground v.1.15,2013-07-30 14:10:00,
2013-07-30 17:16:00,90.3,78.7,29.75,WNW,291,1.0,4.0,69,0.00,,,0.00,Wunderground v.1.15,2013-07-30 14:16:00,
2013-07-30 17:25:00,90.9,79.3,29.74,West,259,1.0,1.0,69,0.00,,,0.00,Wunderground v.1.15,2013-07-30 14:25:00,
2013-07-30 17:35:00,90.5,78.0,29.74,WSW,257,2.0,8.0,67,0.00,,,0.00,Wunderground v.1.15,2013-07-30 14:35:00,
2013-07-30 17:50:00,89.0,77.5,29.74,WNW,290,3.0,4.0,69,0.00,,,0.00,Wunderground v.1.15,2013-07-30 14:50:00,
2013-07-30 18:01:00,88.0,77.8,29.74,NW,304,4.0,4.0,72,0.00,,,0.00,Wunderground v.1.15,2013-07-30 15:01:00,
2013-07-30 18:10:00,86.7,77.4,29.74,WNW,286,5.0,5.0,74,0.00,,,0.00,Wunderground v.1.15,2013-07-30 15:10:00,
2013-07-30 18:16:00,86.8,77.9,29.74,WNW,287,4.0,5.0,75,0.00,,,0.00,Wunderground v.1.15,2013-07-30 15:16:00,
2013-07-30 18:25:00,86.4,77.5,29.74,WNW,287,4.0,5.0,75,0.00,,,0.00,Wunderground v.1.15,2013-07-30 15:25:00,
2013-07-30 18:35:00,86.3,77.8,29.74,NW,304,5.0,5.0,76,0.00,,,0.00,Wunderground v.1.15,2013-07-30 15:35:00,
2013-07-30 18:50:00,86.1,77.2,29.74,WNW,301,6.0,6.0,75,0.00,,,0.00,Wunderground v.1.15,2013-07-30 15:50:00,
2013-07-30 19:05:00,86.6,78.1,29.74,WNW,290,2.0,4.0,76,0.00,,,0.00,Wunderground v.1.15,2013-07-30 16:05:00,
2013-07-30 19:10:00,86.5,77.6,29.73,West,265,2.0,4.0,75,0.00,,,0.00,Wunderground v.1.15,2013-07-30 16:10:00,
2013-07-30 19:16:00,86.3,77.4,29.73,West,279,2.0,2.0,75,0.00,,,0.00,Wunderground v.1.15,2013-07-30 16:16:00,
2013-07-30 19:25:00,86.1,76.8,29.74,West,277,2.0,2.0,74,0.00,,,0.00,Wunderground v.1.15,2013-07-30 16:25:00,
2013-07-30 19:35:00,86.3,77.0,29.74,NNW,327,1.0,6.0,74,0.00,,,0.00,Wunderground v.1.15,2013-07-30 16:35:00,
2013-07-30 19:46:00,85.8,75.3,29.74,West,273,1.0,1.0,71,0.00,,,0.00,Wunderground v.1.15,2013-07-30 16:46:00,
2013-07-30 19:55:00,85.9,75.0,29.74,WNW,302,1.0,1.0,70,0.00,,,0.00,Wunderground v.1.15,2013-07-30 16:55:00,
2013-07-30 20:05:00,85.8,74.0,29.74,West,279,1.0,1.0,68,0.00,,,0.00,Wunderground v.1.15,2013-07-30 17:05:00,
2013-07-30 20:16:00,85.8,74.0,29.74,NW,309,1.0,1.0,68,0.00,,,0.00,Wunderground v.1.15,2013-07-30 17:16:00,
2013-07-30 20:25:00,85.8,73.6,29.74,WNW,295,0.0,0.0,67,0.00,,,0.00,Wunderground v.1.15,2013-07-30 17:25:00,
2013-07-30 20:31:00,85.8,73.6,29.74,WNW,288,1.0,1.0,67,0.00,,,0.00,Wunderground v.1.15,2013-07-30 17:31:00,
2013-07-30 20:40:00,85.7,73.5,29.74,WNW,288,0.0,2.0,67,0.00,,,0.00,Wunderground v.1.15,2013-07-30 17:40:00,
2013-07-30 20:50:00,85.6,73.4,29.75,WNW,289,1.0,2.0,67,0.00,,,0.00,Wunderground v.1.15,2013-07-30 17:50:00,
2013-07-30 21:01:00,85.7,73.9,29.75,WNW,288,0.0,0.0,68,0.00,,,0.00,Wunderground v.1.15,2013-07-30 18:01:00,
2013-07-30 21:10:00,85.6,73.8,29.75,WNW,289,0.0,0.0,68,0.00,,,0.00,Wunderground v.1.15,2013-07-30 18:10:00,
2013-07-30 21:20:00,85.5,73.7,29.75,WNW,289,0.0,0.0,68,0.00,,,0.00,Wunderground v.1.15,2013-07-30 18:20:00,
2013-07-30 21:31:00,85.2,72.6,29.75,WNW,289,0.0,0.0,66,0.00,,,0.00,Wunderground v.1.15,2013-07-30 18:31:00,
2013-07-30 21:40:00,85.1,72.0,29.75,WNW,288,0.0,0.0,65,0.00,,,0.00,Wunderground v.1.15,2013-07-30 18:40:00,
2013-07-30 21:50:00,85.2,72.1,29.75,WNW,288,0.0,0.0,65,0.00,,,0.00,Wunderground v.1.15,2013-07-30 18:50:00,
2013-07-30 22:01:00,85.9,73.7,29.76,West,263,0.0,0.0,67,0.00,,,0.00,Wunderground v.1.15,2013-07-30 19:01:00,
2013-07-30 22:10:00,85.8,73.6,29.75,West,263,0.0,2.0,67,0.00,,,0.00,Wunderground v.1.15,2013-07-30 19:10:00,
2013-07-30 22:20:00,85.7,73.0,29.75,SW,226,0.0,2.0,66,0.00,,,0.00,Wunderground v.1.15,2013-07-30 19:20:00,
2013-07-30 22:25:00,85.7,73.0,29.75,South,180,2.0,2.0,66,0.00,,,0.00,Wunderground v.1.15,2013-07-30 19:25:00,
2013-07-30 22:31:00,85.7,73.5,29.75,South,180,2.0,3.0,67,0.00,,,0.00,Wunderground v.1.15,2013-07-30 19:31:00,
2013-07-30 22:40:00,85.6,72.0,29.75,SSE,155,2.0,3.0,64,0.00,,,0.00,Wunderground v.1.15,2013-07-30 19:40:00,
2013-07-30 22:50:00,86.1,72.0,29.75,SSE,159,3.0,4.0,63,0.00,,,0.00,Wunderground v.1.15,2013-07-30 19:50:00,
2013-07-30 23:01:00,86.5,71.5,29.75,SSE,157,2.0,3.0,61,0.00,,,0.00,Wunderground v.1.15,2013-07-30 20:01:00,
2013-07-30 23:10:00,86.8,71.7,29.74,SSE,156,0.0,0.0,61,0.00,,,0.00,Wunderground v.1.15,2013-07-30 20:10:00,
2013-07-30 23:16:00,87.0,71.9,29.74,SSE,157,0.0,0.0,61,0.00,,,0.00,Wunderground v.1.15,2013-07-30 20:16:00,
2013-07-30 23:25:00,87.1,71.5,29.74,SSE,157,0.0,0.0,60,0.00,,,0.00,Wunderground v.1.15,2013-07-30 20:25:00,
2013-07-30 23:31:00,87.2,71.6,29.74,SSE,156,0.0,0.0,60,0.00,,,0.00,Wunderground v.1.15,2013-07-30 20:31:00,
2013-07-30 23:40:00,87.3,71.2,29.74,SSE,156,0.0,0.0,59,0.00,,,0.00,Wunderground v.1.15,2013-07-30 20:40:00,
2013-07-30 23:50:00,87.5,71.9,29.73,SSE,156,0.0,0.0,60,0.00,,,0.00,Wunderground v.1.15,2013-07-30 20:50:00,